createdAt,value
2023-04-07T00:08:03.431Z,-0.34
2023-04-07T00:18:03.678Z,-0.75
2023-04-07T00:28:03.919Z,-0.75
2023-04-07T00:38:04.130Z,-0.75
2023-04-07T00:48:04.407Z,-0.50
2023-04-07T00:58:04.606Z,-0.50
2023-04-07T01:08:04.821Z,-1.01
2023-04-07T01:18:05.028Z,-0.75
2023-04-07T01:28:05.210Z,-0.50
2023-04-07T01:38:05.419Z,-0.25
2023-04-07T01:48:05.682Z,-0.25
2023-04-07T01:58:05.880Z,-0.25
2023-04-07T02:08:06.094Z,-0.01
2023-04-07T02:18:06.328Z,-0.25
2023-04-07T02:28:06.373Z,-0.01
2023-04-07T02:38:06.579Z,-0.01
2023-04-07T02:48:06.798Z,-0.01
2023-04-07T02:58:07.003Z,-0.25
2023-04-07T03:08:07.220Z,-0.95
2023-04-07T03:18:07.602Z,-0.71
2023-04-07T03:28:07.594Z,-0.71
2023-04-07T03:38:07.802Z,-0.71
2023-04-07T03:48:08.061Z,-0.95
2023-04-07T03:58:08.243Z,-0.95
2023-04-07T04:08:08.442Z,-0.71
2023-04-07T04:18:08.658Z,-0.95
2023-04-07T04:28:08.854Z,-0.95
2023-04-07T04:38:09.057Z,-0.95
2023-04-07T04:48:09.376Z,-0.71
2023-04-07T04:58:09.383Z,-0.48
2023-04-07T05:08:09.580Z,-0.48
2023-04-07T05:18:09.801Z,-0.71
2023-04-07T05:28:10.025Z,-0.71
2023-04-07T05:38:10.208Z,-0.71
2023-04-07T05:48:10.519Z,-0.95
2023-04-07T05:58:10.549Z,-0.01
2023-04-07T06:08:10.757Z,-0.01
2023-04-07T06:18:10.970Z,-0.50
2023-04-07T06:28:11.183Z,-0.50
2023-04-07T06:38:11.376Z,-0.50
2023-04-07T06:48:11.579Z,-0.25
2023-04-07T06:58:11.801Z,-0.01
2023-04-07T07:08:12.007Z,-0.25
2023-04-07T07:18:12.243Z,-0.25
2023-04-07T07:28:12.448Z,-0.50
2023-04-07T07:38:12.649Z,-0.50
2023-04-07T07:48:12.850Z,0.43
2023-04-07T07:58:13.055Z,0.18
2023-04-07T08:08:13.284Z,0.18
2023-04-07T08:18:13.545Z,0.85
2023-04-07T08:28:13.726Z,0.31
2023-04-07T08:38:13.929Z,0.04
2023-04-07T08:48:14.142Z,0.96
2023-04-07T08:58:14.352Z,0.40
2023-04-07T09:08:14.612Z,0.11
2023-04-07T09:18:14.832Z,-0.19
2023-04-07T09:28:15.025Z,1.60
2023-04-07T09:38:15.227Z,0.72
2023-04-07T09:48:15.422Z,1.89
2023-04-07T09:58:15.645Z,1.60
2023-04-07T10:08:15.866Z,3.15
2023-04-07T10:18:16.090Z,3.77
2023-04-07T10:28:16.289Z,2.83
2023-04-07T10:38:16.726Z,4.07
2023-04-07T10:48:16.573Z,4.07
2023-04-07T10:58:16.796Z,2.55
2023-04-07T11:08:17.001Z,3.77
2023-04-07T11:18:17.393Z,4.07
2023-04-07T11:28:17.408Z,2.83
2023-04-07T11:38:17.615Z,2.51
2023-04-07T11:48:17.814Z,2.83
2023-04-07T11:58:17.996Z,4.38
2023-04-07T12:08:18.222Z,3.08
2023-04-07T12:18:18.469Z,2.74
2023-04-07T12:28:18.666Z,3.41
2023-04-07T12:38:18.884Z,3.15
2023-04-07T12:48:19.093Z,3.15
2023-04-07T12:58:19.316Z,2.55
2023-04-07T13:08:19.515Z,4.07
2023-04-07T13:18:19.711Z,3.15
2023-04-07T13:28:19.903Z,2.55
2023-04-07T13:38:20.110Z,3.44
2023-04-07T13:48:20.327Z,3.15
2023-04-07T13:58:20.539Z,4.01
2023-04-07T14:08:20.743Z,3.44
2023-04-07T14:18:20.953Z,3.90
2023-04-07T14:28:21.160Z,3.98
2023-04-07T14:38:21.411Z,3.05
2023-04-07T14:48:21.602Z,3.29
2023-04-07T14:58:21.788Z,2.80
2023-04-07T15:08:22.003Z,2.55
2023-04-07T15:18:22.226Z,2.30
2023-04-07T15:28:22.424Z,4.45
2023-04-07T15:38:22.643Z,5.38
2023-04-07T15:48:22.881Z,5.77
2023-04-07T15:58:23.054Z,5.96
2023-04-07T16:08:23.267Z,5.55
2023-04-07T16:18:23.461Z,5.37
2023-04-07T16:28:23.676Z,5.37
2023-04-07T16:38:23.898Z,5.55
2023-04-07T16:48:24.117Z,5.37
2023-04-07T16:58:24.295Z,6.15
2023-04-07T17:08:24.556Z,6.15
2023-04-07T17:18:24.759Z,4.99
2023-04-07T17:28:24.976Z,3.40
2023-04-07T17:38:25.223Z,4.78
2023-04-07T17:48:25.403Z,4.36
2023-04-07T17:58:25.612Z,4.57
2023-04-07T18:08:25.797Z,4.80
2023-04-07T18:18:26.145Z,5.37
2023-04-07T18:28:26.154Z,5.37
2023-04-07T18:38:26.350Z,5.55
2023-04-07T18:48:26.601Z,5.91
2023-04-07T18:58:26.764Z,4.94
2023-04-07T19:08:26.979Z,5.29
2023-04-07T19:18:27.222Z,5.29
2023-04-07T19:28:27.373Z,5.46
2023-04-07T19:38:27.602Z,5.46
2023-04-07T19:48:27.789Z,5.46
2023-04-07T19:58:27.997Z,5.46
2023-04-07T20:08:28.190Z,5.29
2023-04-07T20:18:28.405Z,5.46
2023-04-07T20:28:28.605Z,5.97
2023-04-07T20:38:28.815Z,5.97
2023-04-07T20:48:29.021Z,5.97
2023-04-07T20:58:29.227Z,5.97
2023-04-07T21:08:29.418Z,6.30
2023-04-07T21:18:29.615Z,5.31
2023-04-07T21:28:29.824Z,5.63
2023-04-07T21:38:30.024Z,5.63
2023-04-07T21:48:30.237Z,5.63
2023-04-07T21:58:30.426Z,5.79
2023-04-07T22:08:30.634Z,5.63
2023-04-07T22:18:30.829Z,5.79
2023-04-07T22:28:31.038Z,5.79
2023-04-07T22:38:31.250Z,5.31
2023-04-07T22:48:31.466Z,5.47
2023-04-07T22:58:31.673Z,5.15
2023-04-07T23:08:31.880Z,5.31
2023-04-07T23:18:32.076Z,5.47
2023-04-07T23:28:32.305Z,5.47
2023-04-07T23:38:32.496Z,5.63
2023-04-07T23:48:32.691Z,5.31
2023-04-07T23:58:32.879Z,5.63
